Gunnar Thorson — OUDU — position and weather

sailwx.info

Track history (hours):
 
Tides and Currents Weather Stations Pressure Air Temp Water Temp Dewpoint Dewpoint Depression Visibility Wind Speed Wind Dir Waves Ship Positions

Oceanographic research ship Gunnar Thorson (Denmark)

Detailed information on ship capabilities available from University of Delaware's Ocean Information Center.

Last reported at 2020-Sep-27 07:28 UTC. Time now 2020-Sep-27 07:48 UTC.
Position N 57°26' E 010°32'.

Length 48 m; draft 4.2 m.

Type: Military. MMSI: 219263000.

Date/timePositionNaut miles runAvg speedWind from/ knotsBaromVisibWave heightAir tempDewpointWater temp
2020-Sep-27 07:28N 57°26' E 010°32'0 0.0
2020-Sep-27 02:58N 57°26' E 010°32'0 0.0
2020-Sep-26 22:52N 57°26' E 010°32'0 0.0
2020-Sep-26 21:58N 57°26' E 010°32'0 0.0
2020-Sep-26 18:58N 57°26' E 010°32'0 0.0
2020-Sep-26 14:55N 57°26' E 010°32'0 0.0
2020-Sep-26 10:57N 57°26' E 010°32'0 0.0
2020-Sep-26 09:18N 57°26' E 010°32'0 0.0
2020-Sep-26 07:57N 57°26' E 010°32'0 0.0
2020-Sep-26 07:30N 57°26' E 010°32'0 0.0
2020-Sep-26 06:57N 57°26' E 010°32'0 0.0
2020-Sep-26 06:09N 57°26' E 010°32'0 0.0
2020-Sep-26 05:30N 57°26' E 010°32'0 0.0
2020-Sep-26 00:30N 57°26' E 010°32'0 0.0
2020-Sep-25 23:30N 57°26' E 010°32'0 0.0
2020-Sep-25 20:30N 57°26' E 010°32'0 0.0
2020-Sep-25 19:15N 57°26' E 010°32'0 0.0
2020-Sep-25 14:27N 57°26' E 010°32'0 0.0
2020-Sep-25 13:54N 57°26' E 010°32'0 0.0
2020-Sep-25 13:27N 57°26' E 010°32'0 0.0
2020-Sep-25 08:27N 57°26' E 010°32'0 0.0
2020-Sep-25 07:30N 57°26' E 010°32'0 0.0
2020-Sep-25 06:57N 57°26' E 010°32'0 0.0
2020-Sep-25 05:57N 57°26' E 010°32'0 0.0
2020-Sep-25 03:56N 57°26' E 010°32'0 0.0
2020-Sep-25 00:26N 57°26' E 010°32'0 0.0
2020-Sep-24 16:59N 57°26' E 010°32'0 0.0
2020-Sep-24 15:59N 57°26' E 010°32'0 0.0
2020-Sep-24 15:29N 57°26' E 010°32'0 0.0
2020-Sep-24 13:59N 57°26' E 010°32'0 0.0
2020-Sep-24 07:25N 57°26' E 010°33'6 7.0
2020-Sep-24 06:30N 57°29' E 010°43'4 4.1
2020-Sep-24 05:28N 57°32' E 010°37'0 0.0
2020-Sep-24 02:58N 57°32' E 010°37'0 0.1
2020-Sep-24 02:28N 57°32' E 010°37'0 0.1
2020-Sep-24 01:58N 57°32' E 010°37'32 7.2
2020-Sep-23 21:30N 58°04' E 010°38'1610.6
2020-Sep-23 20:00N 58°20' E 010°33'610.7
2020-Sep-23 19:24N 58°26' E 010°32'010.8
2020-Sep-23 19:23N 58°26' E 010°32'410.4
2020-Sep-23 19:00N 58°30' E 010°32'4210.4
2020-Sep-23 15:00N 59°12' E 010°37'1110.8
2020-Sep-23 14:00N 59°23' E 010°34'9 4.5
2020-Sep-23 12:00N 59°31' E 010°25'1 1.2
2020-Sep-23 11:00N 59°30' E 010°28'0 0.3
2020-Sep-23 10:30N 59°30' E 010°28'3 0.4
2020-Sep-23 02:00N 59°27' E 010°25'0 0.0
2020-Sep-22 23:00N 59°27' E 010°25'0 0.0
2020-Sep-22 16:30N 59°27' E 010°25'0 0.0
2020-Sep-22 16:00N 59°27' E 010°25'0 0.0
2020-Sep-22 15:30N 59°27' E 010°25'2 0.6
2020-Sep-22 12:00N 59°28' E 010°28'2 1.8
2020-Sep-22 11:00N 59°28' E 010°25'1 1.3
2020-Sep-22 10:00N 59°28' E 010°27'0 0.6
2020-Sep-22 09:30N 59°28' E 010°27'1 0.8
2020-Sep-22 08:00N 59°28' E 010°25'0 0.5
2020-Sep-22 07:30N 59°27' E 010°25'0 0.5
2020-Sep-22 06:58N 59°27' E 010°25'0 0.0
2020-Sep-22 04:58N 59°27' E 010°25'0 0.0
2020-Sep-22 03:58N 59°27' E 010°25'0 0.0
2020-Sep-22 03:28N 59°27' E 010°25'0 0.0
2020-Sep-21 22:58N 59°27' E 010°25'0 0.0
2020-Sep-21 21:58N 59°27' E 010°25'0 0.0
2020-Sep-21 21:28N 59°27' E 010°25'0 0.0
2020-Sep-21 20:28N 59°27' E 010°25'0 0.0
2020-Sep-21 17:28N 59°27' E 010°25'0 0.0
2020-Sep-21 15:58N 59°27' E 010°25'14 7.1
2020-Sep-21 14:00N 59°15' E 010°38'3911.1
2020-Sep-21 10:30N 58°36' E 010°32'2311.5
2020-Sep-21 08:30N 58°13' E 010°35'1110.8
2020-Sep-21 07:30N 58°02' E 010°39'20 9.8
2020-Sep-21 05:31N 57°43' E 010°40'2 0.5
2020-Sep-21 01:29N 57°43' E 010°36'0 0.0
2020-Sep-21 00:26N 57°43' E 010°36'0 0.0
2020-Sep-20 23:29N 57°43' E 010°36'0 0.0
2020-Sep-20 19:29N 57°43' E 010°36'0 0.0
2020-Sep-20 18:56N 57°43' E 010°36'0 0.0
2020-Sep-20 17:56N 57°43' E 010°36'0 0.0
2020-Sep-20 17:29N 57°43' E 010°36'0 0.3
2020-Sep-20 17:00N 57°43' E 010°36'4 8.8
2020-Sep-20 16:30N 57°42' E 010°44'611.2
2020-Sep-20 16:00N 57°36' E 010°42'12 7.8
2020-Sep-20 14:29N 57°26' E 010°32'0 0.0
2020-Sep-20 12:29N 57°26' E 010°32'0 0.0
2020-Sep-20 11:59N 57°26' E 010°32'0 0.0
2020-Sep-20 11:17N 57°26' E 010°32'3 4.4
2020-Sep-20 10:30N 57°24' E 010°37'16 7.7
2020-Sep-20 08:29N 57°09' E 010°45'11 7.3
2020-Sep-20 07:00N 56°59' E 010°52'8 7.5
2020-Sep-20 06:00N 56°51' E 010°50'46 7.7
2020-Sep-20 00:01N 56°06' E 011°06'27 7.8
2020-Sep-19 20:30N 55°40' E 010°47'11 7.7
2020-Sep-19 19:01N 55°30' E 010°54'12 7.6
2020-Sep-19 17:30N 55°19' E 011°02'8 7.9
2020-Sep-19 16:30N 55°11' E 011°05'20 8.2
2020-Sep-19 14:00N 54°52' E 010°53'20 6.7
2020-Sep-19 11:00N 54°44' E 010°22'1111.0
2020-Sep-19 10:00N 54°47' E 010°03'12 2.0
2020-Sep-19 04:00N 54°55' E 009°47'13 0.5
2020-Sep-18 04:53N 55°05' E 009°35'0 0.0
2020-Sep-18 02:38N 55°05' E 009°35'27 2.4
2020-Sep-17 15:29N 55°31' E 009°45'5 4.2
2020-Sep-17 14:12N 55°34' E 009°54'  
Track history (hours):
 
Tides and Currents Weather Stations Pressure Air Temp Water Temp Dewpoint Dewpoint Depression Visibility Wind Speed Wind Dir Waves Ship Positions

Oceanographic research ship Gunnar Thorson (Denmark)

Detailed information on ship capabilities available from University of Delaware's Ocean Information Center.

Last reported at 2020-Sep-27 07:28 UTC. Time now 2020-Sep-27 07:48 UTC.
Position N 57°26' E 010°32'.

Length 48 m; draft 4.2 m.

Type: Military. MMSI: 219263000.

Date/timePositionNaut miles runAvg speedWind from/ knotsBaromVisibWave heightAir tempDewpointWater temp
2020-Sep-27 07:28N 57°26' E 010°32'0 0.0
2020-Sep-27 02:58N 57°26' E 010°32'0 0.0
2020-Sep-26 22:52N 57°26' E 010°32'0 0.0
2020-Sep-26 21:58N 57°26' E 010°32'0 0.0
2020-Sep-26 18:58N 57°26' E 010°32'0 0.0
2020-Sep-26 14:55N 57°26' E 010°32'0 0.0
2020-Sep-26 10:57N 57°26' E 010°32'0 0.0
2020-Sep-26 09:18N 57°26' E 010°32'0 0.0
2020-Sep-26 07:57N 57°26' E 010°32'0 0.0
2020-Sep-26 07:30N 57°26' E 010°32'0 0.0
2020-Sep-26 06:57N 57°26' E 010°32'0 0.0
2020-Sep-26 06:09N 57°26' E 010°32'0 0.0
2020-Sep-26 05:30N 57°26' E 010°32'0 0.0
2020-Sep-26 00:30N 57°26' E 010°32'0 0.0
2020-Sep-25 23:30N 57°26' E 010°32'0 0.0
2020-Sep-25 20:30N 57°26' E 010°32'0 0.0
2020-Sep-25 19:15N 57°26' E 010°32'0 0.0
2020-Sep-25 14:27N 57°26' E 010°32'0 0.0
2020-Sep-25 13:54N 57°26' E 010°32'0 0.0
2020-Sep-25 13:27N 57°26' E 010°32'0 0.0
2020-Sep-25 08:27N 57°26' E 010°32'0 0.0
2020-Sep-25 07:30N 57°26' E 010°32'0 0.0
2020-Sep-25 06:57N 57°26' E 010°32'0 0.0
2020-Sep-25 05:57N 57°26' E 010°32'0 0.0
2020-Sep-25 03:56N 57°26' E 010°32'0 0.0
2020-Sep-25 00:26N 57°26' E 010°32'0 0.0
2020-Sep-24 16:59N 57°26' E 010°32'0 0.0
2020-Sep-24 15:59N 57°26' E 010°32'0 0.0
2020-Sep-24 15:29N 57°26' E 010°32'0 0.0
2020-Sep-24 13:59N 57°26' E 010°32'0 0.0
2020-Sep-24 07:25N 57°26' E 010°33'6 7.0
2020-Sep-24 06:30N 57°29' E 010°43'4 4.1
2020-Sep-24 05:28N 57°32' E 010°37'0 0.0
2020-Sep-24 02:58N 57°32' E 010°37'0 0.1
2020-Sep-24 02:28N 57°32' E 010°37'0 0.1
2020-Sep-24 01:58N 57°32' E 010°37'32 7.2
2020-Sep-23 21:30N 58°04' E 010°38'1610.6
2020-Sep-23 20:00N 58°20' E 010°33'610.7
2020-Sep-23 19:24N 58°26' E 010°32'010.8
2020-Sep-23 19:23N 58°26' E 010°32'410.4
2020-Sep-23 19:00N 58°30' E 010°32'4210.4
2020-Sep-23 15:00N 59°12' E 010°37'1110.8
2020-Sep-23 14:00N 59°23' E 010°34'9 4.5
2020-Sep-23 12:00N 59°31' E 010°25'1 1.2
2020-Sep-23 11:00N 59°30' E 010°28'0 0.3
2020-Sep-23 10:30N 59°30' E 010°28'3 0.4
2020-Sep-23 02:00N 59°27' E 010°25'0 0.0
2020-Sep-22 23:00N 59°27' E 010°25'0 0.0
2020-Sep-22 16:30N 59°27' E 010°25'0 0.0
2020-Sep-22 16:00N 59°27' E 010°25'0 0.0
2020-Sep-22 15:30N 59°27' E 010°25'2 0.6
2020-Sep-22 12:00N 59°28' E 010°28'2 1.8
2020-Sep-22 11:00N 59°28' E 010°25'1 1.3
2020-Sep-22 10:00N 59°28' E 010°27'0 0.6
2020-Sep-22 09:30N 59°28' E 010°27'1 0.8
2020-Sep-22 08:00N 59°28' E 010°25'0 0.5
2020-Sep-22 07:30N 59°27' E 010°25'0 0.5
2020-Sep-22 06:58N 59°27' E 010°25'0 0.0
2020-Sep-22 04:58N 59°27' E 010°25'0 0.0
2020-Sep-22 03:58N 59°27' E 010°25'0 0.0
2020-Sep-22 03:28N 59°27' E 010°25'0 0.0
2020-Sep-21 22:58N 59°27' E 010°25'0 0.0
2020-Sep-21 21:58N 59°27' E 010°25'0 0.0
2020-Sep-21 21:28N 59°27' E 010°25'0 0.0
2020-Sep-21 20:28N 59°27' E 010°25'0 0.0
2020-Sep-21 17:28N 59°27' E 010°25'0 0.0
2020-Sep-21 15:58N 59°27' E 010°25'14 7.1
2020-Sep-21 14:00N 59°15' E 010°38'3911.1
2020-Sep-21 10:30N 58°36' E 010°32'2311.5
2020-Sep-21 08:30N 58°13' E 010°35'1110.8
2020-Sep-21 07:30N 58°02' E 010°39'20 9.8
2020-Sep-21 05:31N 57°43' E 010°40'2 0.5
2020-Sep-21 01:29N 57°43' E 010°36'0 0.0
2020-Sep-21 00:26N 57°43' E 010°36'0 0.0
2020-Sep-20 23:29N 57°43' E 010°36'0 0.0
2020-Sep-20 19:29N 57°43' E 010°36'0 0.0
2020-Sep-20 18:56N 57°43' E 010°36'0 0.0
2020-Sep-20 17:56N 57°43' E 010°36'0 0.0
2020-Sep-20 17:29N 57°43' E 010°36'0 0.3
2020-Sep-20 17:00N 57°43' E 010°36'4 8.8
2020-Sep-20 16:30N 57°42' E 010°44'611.2
2020-Sep-20 16:00N 57°36' E 010°42'12 7.8
2020-Sep-20 14:29N 57°26' E 010°32'0 0.0
2020-Sep-20 12:29N 57°26' E 010°32'0 0.0
2020-Sep-20 11:59N 57°26' E 010°32'0 0.0
2020-Sep-20 11:17N 57°26' E 010°32'3 4.4
2020-Sep-20 10:30N 57°24' E 010°37'16 7.7
2020-Sep-20 08:29N 57°09' E 010°45'11 7.3
2020-Sep-20 07:00N 56°59' E 010°52'8 7.5
2020-Sep-20 06:00N 56°51' E 010°50'46 7.7
2020-Sep-20 00:01N 56°06' E 011°06'27 7.8
2020-Sep-19 20:30N 55°40' E 010°47'11 7.7
2020-Sep-19 19:01N 55°30' E 010°54'12 7.6
2020-Sep-19 17:30N 55°19' E 011°02'8 7.9
2020-Sep-19 16:30N 55°11' E 011°05'20 8.2
2020-Sep-19 14:00N 54°52' E 010°53'20 6.7
2020-Sep-19 11:00N 54°44' E 010°22'1111.0
2020-Sep-19 10:00N 54°47' E 010°03'12 2.0
2020-Sep-19 04:00N 54°55' E 009°47'13 0.5
2020-Sep-18 04:53N 55°05' E 009°35'0 0.0
2020-Sep-18 02:38N 55°05' E 009°35'27 2.4
2020-Sep-17 15:29N 55°31' E 009°45'5 4.2
2020-Sep-17 14:12N 55°34' E 009°54'  

Dump ship's entire track history